sensor_id;sensor_type;location;lat;lon;timestamp;P1;durP1;ratioP1;P2;durP2;ratioP2
17725;SDS011;8983;53.156;17.960;2022-10-31T00:00:45;114.87;;;24.43;;
17725;SDS011;8983;53.156;17.960;2022-10-31T00:03:14;154.43;;;25.67;;
17725;SDS011;8983;53.156;17.960;2022-10-31T00:05:43;164.43;;;27.87;;
17725;SDS011;8983;53.156;17.960;2022-10-31T00:08:12;86.50;;;25.17;;
17725;SDS011;8983;53.156;17.960;2022-10-31T00:10:43;115.77;;;26.23;;
17725;SDS011;8983;53.156;17.960;2022-10-31T00:13:12;239.60;;;29.57;;
17725;SDS011;8983;53.156;17.960;2022-10-31T00:15:41;99.30;;;24.60;;
17725;SDS011;8983;53.156;17.960;2022-10-31T00:18:09;90.50;;;24.07;;
17725;SDS011;8983;53.156;17.960;2022-10-31T00:20:38;107.83;;;24.80;;
17725;SDS011;8983;53.156;17.960;2022-10-31T00:23:06;157.17;;;28.23;;
17725;SDS011;8983;53.156;17.960;2022-10-31T00:25:36;126.77;;;26.73;;
17725;SDS011;8983;53.156;17.960;2022-10-31T00:28:07;277.17;;;31.63;;
17725;SDS011;8983;53.156;17.960;2022-10-31T00:30:37;213.17;;;29.57;;
17725;SDS011;8983;53.156;17.960;2022-10-31T00:33:05;85.20;;;24.00;;
17725;SDS011;8983;53.156;17.960;2022-10-31T00:35:33;179.10;;;26.90;;
17725;SDS011;8983;53.156;17.960;2022-10-31T00:38:01;84.90;;;23.93;;
17725;SDS011;8983;53.156;17.960;2022-10-31T00:40:29;134.07;;;26.10;;
17725;SDS011;8983;53.156;17.960;2022-10-31T00:42:57;196.67;;;27.80;;
17725;SDS011;8983;53.156;17.960;2022-10-31T00:45:26;122.63;;;26.40;;
17725;SDS011;8983;53.156;17.960;2022-10-31T00:47:54;157.03;;;27.60;;
17725;SDS011;8983;53.156;17.960;2022-10-31T00:50:23;210.80;;;30.27;;
17725;SDS011;8983;53.156;17.960;2022-10-31T00:52:51;75.63;;;25.40;;
17725;SDS011;8983;53.156;17.960;2022-10-31T00:55:19;343.47;;;34.20;;
17725;SDS011;8983;53.156;17.960;2022-10-31T00:57:46;70.30;;;25.57;;
17725;SDS011;8983;53.156;17.960;2022-10-31T01:00:15;115.03;;;25.90;;
17725;SDS011;8983;53.156;17.960;2022-10-31T01:02:44;131.07;;;29.60;;
17725;SDS011;8983;53.156;17.960;2022-10-31T01:05:12;129.93;;;30.47;;
17725;SDS011;8983;53.156;17.960;2022-10-31T01:07:41;174.20;;;30.57;;
17725;SDS011;8983;53.156;17.960;2022-10-31T01:10:09;151.03;;;29.93;;
17725;SDS011;8983;53.156;17.960;2022-10-31T01:12:38;144.53;;;30.03;;
17725;SDS011;8983;53.156;17.960;2022-10-31T01:15:07;81.10;;;28.33;;
17725;SDS011;8983;53.156;17.960;2022-10-31T01:17:36;94.27;;;28.37;;
17725;SDS011;8983;53.156;17.960;2022-10-31T01:20:07;363.53;;;40.93;;
17725;SDS011;8983;53.156;17.960;2022-10-31T01:22:36;76.03;;;29.27;;
17725;SDS011;8983;53.156;17.960;2022-10-31T01:25:05;155.97;;;30.13;;
17725;SDS011;8983;53.156;17.960;2022-10-31T01:27:33;181.50;;;31.47;;
17725;SDS011;8983;53.156;17.960;2022-10-31T01:30:02;91.90;;;29.10;;
17725;SDS011;8983;53.156;17.960;2022-10-31T01:32:30;121.90;;;29.13;;
17725;SDS011;8983;53.156;17.960;2022-10-31T01:34:58;167.03;;;30.73;;
17725;SDS011;8983;53.156;17.960;2022-10-31T01:37:27;190.67;;;31.90;;
17725;SDS011;8983;53.156;17.960;2022-10-31T01:39:55;121.80;;;29.80;;
17725;SDS011;8983;53.156;17.960;2022-10-31T01:42:23;108.27;;;29.57;;
17725;SDS011;8983;53.156;17.960;2022-10-31T01:44:58;125.57;;;29.80;;
17725;SDS011;8983;53.156;17.960;2022-10-31T01:47:32;132.97;;;31.23;;
17725;SDS011;8983;53.156;17.960;2022-10-31T01:50:06;97.00;;;27.97;;
17725;SDS011;8983;53.156;17.960;2022-10-31T01:52:42;129.67;;;30.17;;
17725;SDS011;8983;53.156;17.960;2022-10-31T01:55:13;232.47;;;34.20;;
17725;SDS011;8983;53.156;17.960;2022-10-31T01:57:45;125.27;;;31.90;;
17725;SDS011;8983;53.156;17.960;2022-10-31T02:00:15;137.30;;;32.33;;
17725;SDS011;8983;53.156;17.960;2022-10-31T02:02:45;90.53;;;29.57;;
17725;SDS011;8983;53.156;17.960;2022-10-31T02:05:16;81.17;;;29.10;;
17725;SDS011;8983;53.156;17.960;2022-10-31T02:07:51;88.30;;;29.90;;
17725;SDS011;8983;53.156;17.960;2022-10-31T02:10:22;116.77;;;29.57;;
17725;SDS011;8983;53.156;17.960;2022-10-31T02:12:51;278.60;;;38.70;;
17725;SDS011;8983;53.156;17.960;2022-10-31T02:15:20;224.73;;;35.73;;
17725;SDS011;8983;53.156;17.960;2022-10-31T02:17:48;154.10;;;31.67;;
17725;SDS011;8983;53.156;17.960;2022-10-31T02:20:17;133.30;;;30.67;;
17725;SDS011;8983;53.156;17.960;2022-10-31T02:22:54;208.50;;;34.60;;
17725;SDS011;8983;53.156;17.960;2022-10-31T02:25:46;137.37;;;31.40;;
17725;SDS011;8983;53.156;17.960;2022-10-31T02:28:35;145.40;;;30.70;;
17725;SDS011;8983;53.156;17.960;2022-10-31T02:31:20;197.47;;;33.73;;
17725;SDS011;8983;53.156;17.960;2022-10-31T02:33:57;243.23;;;37.23;;
17725;SDS011;8983;53.156;17.960;2022-10-31T02:36:31;107.77;;;29.10;;
17725;SDS011;8983;53.156;17.960;2022-10-31T02:39:08;82.67;;;29.47;;
17725;SDS011;8983;53.156;17.960;2022-10-31T02:41:42;144.80;;;32.67;;
17725;SDS011;8983;53.156;17.960;2022-10-31T02:44:16;105.93;;;29.67;;
17725;SDS011;8983;53.156;17.960;2022-10-31T02:46:51;352.90;;;41.00;;
17725;SDS011;8983;53.156;17.960;2022-10-31T02:49:24;171.77;;;33.17;;
17725;SDS011;8983;53.156;17.960;2022-10-31T02:51:58;102.07;;;29.80;;
17725;SDS011;8983;53.156;17.960;2022-10-31T02:54:27;558.97;;;51.57;;
17725;SDS011;8983;53.156;17.960;2022-10-31T02:56:57;365.67;;;40.00;;
17725;SDS011;8983;53.156;17.960;2022-10-31T02:59:30;173.10;;;33.37;;
17725;SDS011;8983;53.156;17.960;2022-10-31T03:02:09;91.57;;;27.83;;
17725;SDS011;8983;53.156;17.960;2022-10-31T03:04:56;139.97;;;29.23;;
17725;SDS011;8983;53.156;17.960;2022-10-31T03:07:42;116.13;;;27.43;;
17725;SDS011;8983;53.156;17.960;2022-10-31T03:10:16;188.43;;;32.10;;
17725;SDS011;8983;53.156;17.960;2022-10-31T03:12:54;126.67;;;28.30;;
17725;SDS011;8983;53.156;17.960;2022-10-31T03:15:33;124.37;;;28.60;;
17725;SDS011;8983;53.156;17.960;2022-10-31T03:18:07;137.83;;;29.30;;
17725;SDS011;8983;53.156;17.960;2022-10-31T03:20:37;337.10;;;39.00;;
17725;SDS011;8983;53.156;17.960;2022-10-31T03:23:10;123.30;;;30.60;;
17725;SDS011;8983;53.156;17.960;2022-10-31T03:25:40;90.87;;;29.50;;
17725;SDS011;8983;53.156;17.960;2022-10-31T03:28:11;118.53;;;30.30;;
17725;SDS011;8983;53.156;17.960;2022-10-31T03:30:41;398.97;;;44.77;;
17725;SDS011;8983;53.156;17.960;2022-10-31T03:33:13;131.17;;;30.80;;
17725;SDS011;8983;53.156;17.960;2022-10-31T03:35:44;169.70;;;31.87;;
17725;SDS011;8983;53.156;17.960;2022-10-31T03:38:18;132.13;;;28.93;;
17725;SDS011;8983;53.156;17.960;2022-10-31T03:40:47;228.53;;;33.13;;
17725;SDS011;8983;53.156;17.960;2022-10-31T03:43:19;234.23;;;31.97;;
17725;SDS011;8983;53.156;17.960;2022-10-31T03:45:50;134.87;;;28.83;;
17725;SDS011;8983;53.156;17.960;2022-10-31T03:48:20;205.70;;;30.67;;
17725;SDS011;8983;53.156;17.960;2022-10-31T03:50:50;103.03;;;28.40;;
17725;SDS011;8983;53.156;17.960;2022-10-31T03:53:24;95.70;;;27.30;;
17725;SDS011;8983;53.156;17.960;2022-10-31T03:55:58;112.33;;;27.47;;
17725;SDS011;8983;53.156;17.960;2022-10-31T03:58:30;121.00;;;26.70;;
17725;SDS011;8983;53.156;17.960;2022-10-31T04:01:03;171.03;;;29.13;;
17725;SDS011;8983;53.156;17.960;2022-10-31T04:03:36;99.53;;;27.20;;
17725;SDS011;8983;53.156;17.960;2022-10-31T04:06:06;137.90;;;27.53;;
17725;SDS011;8983;53.156;17.960;2022-10-31T04:08:37;97.83;;;29.20;;
17725;SDS011;8983;53.156;17.960;2022-10-31T04:11:07;204.77;;;31.83;;
17725;SDS011;8983;53.156;17.960;2022-10-31T04:13:37;96.87;;;27.70;;
17725;SDS011;8983;53.156;17.960;2022-10-31T04:16:06;111.30;;;27.70;;
17725;SDS011;8983;53.156;17.960;2022-10-31T04:18:43;400.47;;;40.40;;
17725;SDS011;8983;53.156;17.960;2022-10-31T04:21:11;94.03;;;27.47;;
17725;SDS011;8983;53.156;17.960;2022-10-31T04:23:39;67.80;;;26.90;;
17725;SDS011;8983;53.156;17.960;2022-10-31T04:26:07;79.83;;;26.33;;
17725;SDS011;8983;53.156;17.960;2022-10-31T04:28:37;109.80;;;26.83;;
17725;SDS011;8983;53.156;17.960;2022-10-31T04:31:05;79.37;;;25.40;;
17725;SDS011;8983;53.156;17.960;2022-10-31T04:33:33;70.57;;;24.33;;
17725;SDS011;8983;53.156;17.960;2022-10-31T04:36:03;119.80;;;25.73;;
17725;SDS011;8983;53.156;17.960;2022-10-31T04:38:31;144.03;;;27.40;;
17725;SDS011;8983;53.156;17.960;2022-10-31T04:40:59;357.67;;;37.53;;
17725;SDS011;8983;53.156;17.960;2022-10-31T04:43:27;112.90;;;27.10;;
17725;SDS011;8983;53.156;17.960;2022-10-31T04:45:55;243.50;;;32.63;;
17725;SDS011;8983;53.156;17.960;2022-10-31T04:48:24;364.00;;;37.63;;
17725;SDS011;8983;53.156;17.960;2022-10-31T04:50:51;324.97;;;36.90;;
17725;SDS011;8983;53.156;17.960;2022-10-31T04:53:21;271.20;;;34.87;;
17725;SDS011;8983;53.156;17.960;2022-10-31T04:55:49;325.30;;;36.30;;
17725;SDS011;8983;53.156;17.960;2022-10-31T04:58:16;284.33;;;34.37;;
17725;SDS011;8983;53.156;17.960;2022-10-31T05:00:44;219.77;;;31.20;;
17725;SDS011;8983;53.156;17.960;2022-10-31T05:03:12;411.27;;;41.27;;
17725;SDS011;8983;53.156;17.960;2022-10-31T05:05:41;276.87;;;32.80;;
17725;SDS011;8983;53.156;17.960;2022-10-31T05:08:09;129.43;;;27.23;;
17725;SDS011;8983;53.156;17.960;2022-10-31T05:10:38;287.80;;;32.17;;
17725;SDS011;8983;53.156;17.960;2022-10-31T05:13:06;133.93;;;25.80;;
17725;SDS011;8983;53.156;17.960;2022-10-31T05:15:35;211.47;;;27.83;;
17725;SDS011;8983;53.156;17.960;2022-10-31T05:18:02;180.03;;;27.40;;
17725;SDS011;8983;53.156;17.960;2022-10-31T05:20:30;82.87;;;23.63;;
17725;SDS011;8983;53.156;17.960;2022-10-31T05:22:59;138.87;;;25.30;;
17725;SDS011;8983;53.156;17.960;2022-10-31T05:25:27;137.60;;;26.20;;
17725;SDS011;8983;53.156;17.960;2022-10-31T05:27:57;268.53;;;31.93;;
17725;SDS011;8983;53.156;17.960;2022-10-31T05:30:27;122.40;;;25.90;;
17725;SDS011;8983;53.156;17.960;2022-10-31T05:32:56;91.67;;;23.80;;
17725;SDS011;8983;53.156;17.960;2022-10-31T05:35:25;106.43;;;26.37;;
17725;SDS011;8983;53.156;17.960;2022-10-31T05:37:54;56.80;;;22.30;;
17725;SDS011;8983;53.156;17.960;2022-10-31T05:40:24;79.87;;;21.80;;
17725;SDS011;8983;53.156;17.960;2022-10-31T05:42:53;88.60;;;23.20;;
17725;SDS011;8983;53.156;17.960;2022-10-31T05:45:23;74.80;;;22.27;;
17725;SDS011;8983;53.156;17.960;2022-10-31T05:47:52;102.50;;;23.27;;
17725;SDS011;8983;53.156;17.960;2022-10-31T05:50:20;131.60;;;24.07;;
17725;SDS011;8983;53.156;17.960;2022-10-31T05:52:53;245.13;;;28.03;;
17725;SDS011;8983;53.156;17.960;2022-10-31T05:55:22;156.73;;;25.10;;
17725;SDS011;8983;53.156;17.960;2022-10-31T05:57:51;114.30;;;23.97;;
17725;SDS011;8983;53.156;17.960;2022-10-31T06:00:20;56.47;;;22.27;;
17725;SDS011;8983;53.156;17.960;2022-10-31T06:02:53;91.50;;;21.73;;
17725;SDS011;8983;53.156;17.960;2022-10-31T06:05:25;102.30;;;22.43;;
17725;SDS011;8983;53.156;17.960;2022-10-31T06:07:53;216.77;;;28.13;;
17725;SDS011;8983;53.156;17.960;2022-10-31T06:10:21;105.23;;;24.97;;
17725;SDS011;8983;53.156;17.960;2022-10-31T06:12:49;107.63;;;24.63;;
17725;SDS011;8983;53.156;17.960;2022-10-31T06:15:17;149.23;;;28.40;;
17725;SDS011;8983;53.156;17.960;2022-10-31T06:17:58;279.90;;;30.33;;
17725;SDS011;8983;53.156;17.960;2022-10-31T06:20:28;121.30;;;24.90;;
17725;SDS011;8983;53.156;17.960;2022-10-31T06:22:55;129.83;;;26.63;;
17725;SDS011;8983;53.156;17.960;2022-10-31T06:25:24;112.67;;;24.67;;
17725;SDS011;8983;53.156;17.960;2022-10-31T06:27:52;83.03;;;25.10;;
17725;SDS011;8983;53.156;17.960;2022-10-31T06:30:21;237.97;;;28.53;;
17725;SDS011;8983;53.156;17.960;2022-10-31T06:32:49;116.23;;;24.43;;
17725;SDS011;8983;53.156;17.960;2022-10-31T06:35:18;101.67;;;24.33;;
17725;SDS011;8983;53.156;17.960;2022-10-31T06:37:50;205.87;;;27.93;;
17725;SDS011;8983;53.156;17.960;2022-10-31T06:40:19;444.40;;;37.10;;
17725;SDS011;8983;53.156;17.960;2022-10-31T06:42:47;142.03;;;27.33;;
17725;SDS011;8983;53.156;17.960;2022-10-31T06:45:15;336.07;;;32.67;;
17725;SDS011;8983;53.156;17.960;2022-10-31T06:47:42;105.80;;;24.17;;
17725;SDS011;8983;53.156;17.960;2022-10-31T06:50:39;224.60;;;29.10;;
17725;SDS011;8983;53.156;17.960;2022-10-31T06:53:07;135.70;;;25.50;;
17725;SDS011;8983;53.156;17.960;2022-10-31T06:55:40;105.83;;;25.00;;
17725;SDS011;8983;53.156;17.960;2022-10-31T06:58:09;199.83;;;27.73;;
17725;SDS011;8983;53.156;17.960;2022-10-31T07:00:38;101.20;;;24.43;;
17725;SDS011;8983;53.156;17.960;2022-10-31T07:03:07;94.43;;;24.67;;
17725;SDS011;8983;53.156;17.960;2022-10-31T07:05:39;231.83;;;30.03;;
17725;SDS011;8983;53.156;17.960;2022-10-31T07:08:08;206.60;;;28.70;;
17725;SDS011;8983;53.156;17.960;2022-10-31T07:10:38;350.13;;;31.10;;
17725;SDS011;8983;53.156;17.960;2022-10-31T07:13:09;92.90;;;23.37;;
17725;SDS011;8983;53.156;17.960;2022-10-31T07:15:39;147.57;;;25.63;;
17725;SDS011;8983;53.156;17.960;2022-10-31T07:18:09;227.50;;;27.97;;
17725;SDS011;8983;53.156;17.960;2022-10-31T07:20:39;123.10;;;23.20;;
17725;SDS011;8983;53.156;17.960;2022-10-31T07:23:07;143.80;;;25.47;;
17725;SDS011;8983;53.156;17.960;2022-10-31T07:25:36;106.53;;;24.37;;
17725;SDS011;8983;53.156;17.960;2022-10-31T07:28:04;275.13;;;31.67;;
17725;SDS011;8983;53.156;17.960;2022-10-31T07:30:33;247.23;;;30.63;;
17725;SDS011;8983;53.156;17.960;2022-10-31T07:33:01;117.40;;;26.77;;
17725;SDS011;8983;53.156;17.960;2022-10-31T07:35:29;363.53;;;34.20;;
17725;SDS011;8983;53.156;17.960;2022-10-31T07:38:05;204.43;;;31.27;;
17725;SDS011;8983;53.156;17.960;2022-10-31T07:40:34;216.20;;;32.20;;
17725;SDS011;8983;53.156;17.960;2022-10-31T07:43:02;212.43;;;32.20;;
17725;SDS011;8983;53.156;17.960;2022-10-31T07:45:38;107.23;;;28.23;;
17725;SDS011;8983;53.156;17.960;2022-10-31T07:48:06;129.80;;;28.63;;
17725;SDS011;8983;53.156;17.960;2022-10-31T07:50:34;119.93;;;27.10;;
17725;SDS011;8983;53.156;17.960;2022-10-31T07:53:04;121.07;;;28.10;;
17725;SDS011;8983;53.156;17.960;2022-10-31T07:55:33;209.27;;;32.93;;
17725;SDS011;8983;53.156;17.960;2022-10-31T07:58:02;423.30;;;38.40;;
17725;SDS011;8983;53.156;17.960;2022-10-31T08:00:31;178.43;;;31.00;;
17725;SDS011;8983;53.156;17.960;2022-10-31T08:03:01;127.67;;;28.87;;
17725;SDS011;8983;53.156;17.960;2022-10-31T08:05:34;176.07;;;25.50;;
17725;SDS011;8983;53.156;17.960;2022-10-31T08:08:04;155.77;;;23.40;;
17725;SDS011;8983;53.156;17.960;2022-10-31T08:10:32;177.97;;;23.73;;
17725;SDS011;8983;53.156;17.960;2022-10-31T08:13:02;159.13;;;21.43;;
17725;SDS011;8983;53.156;17.960;2022-10-31T08:15:32;156.20;;;21.20;;
17725;SDS011;8983;53.156;17.960;2022-10-31T08:18:03;175.27;;;24.20;;
17725;SDS011;8983;53.156;17.960;2022-10-31T08:20:31;172.13;;;23.90;;
17725;SDS011;8983;53.156;17.960;2022-10-31T08:23:00;131.77;;;20.77;;
17725;SDS011;8983;53.156;17.960;2022-10-31T08:25:32;181.60;;;22.43;;
17725;SDS011;8983;53.156;17.960;2022-10-31T08:28:04;175.03;;;22.43;;
17725;SDS011;8983;53.156;17.960;2022-10-31T08:30:33;152.13;;;21.87;;
17725;SDS011;8983;53.156;17.960;2022-10-31T08:33:03;151.23;;;20.80;;
17725;SDS011;8983;53.156;17.960;2022-10-31T08:35:32;141.63;;;21.40;;
17725;SDS011;8983;53.156;17.960;2022-10-31T08:38:01;127.73;;;21.07;;
17725;SDS011;8983;53.156;17.960;2022-10-31T08:40:31;173.27;;;21.67;;
17725;SDS011;8983;53.156;17.960;2022-10-31T08:43:01;87.87;;;21.17;;
17725;SDS011;8983;53.156;17.960;2022-10-31T08:45:31;157.50;;;21.13;;
17725;SDS011;8983;53.156;17.960;2022-10-31T08:48:00;178.17;;;23.27;;
17725;SDS011;8983;53.156;17.960;2022-10-31T08:50:30;104.13;;;22.27;;
17725;SDS011;8983;53.156;17.960;2022-10-31T08:53:00;109.50;;;20.97;;
17725;SDS011;8983;53.156;17.960;2022-10-31T08:55:33;175.43;;;23.57;;
17725;SDS011;8983;53.156;17.960;2022-10-31T08:58:02;130.50;;;21.37;;
17725;SDS011;8983;53.156;17.960;2022-10-31T09:00:31;144.63;;;21.00;;
17725;SDS011;8983;53.156;17.960;2022-10-31T09:03:00;131.87;;;21.10;;
17725;SDS011;8983;53.156;17.960;2022-10-31T09:05:29;85.00;;;19.67;;
17725;SDS011;8983;53.156;17.960;2022-10-31T09:07:58;93.60;;;20.83;;
17725;SDS011;8983;53.156;17.960;2022-10-31T09:10:28;117.33;;;21.50;;
17725;SDS011;8983;53.156;17.960;2022-10-31T09:12:59;134.67;;;24.23;;
17725;SDS011;8983;53.156;17.960;2022-10-31T09:15:28;123.37;;;21.43;;
17725;SDS011;8983;53.156;17.960;2022-10-31T09:17:56;82.53;;;21.80;;
17725;SDS011;8983;53.156;17.960;2022-10-31T09:20:25;81.20;;;22.60;;
17725;SDS011;8983;53.156;17.960;2022-10-31T09:22:56;77.47;;;23.30;;
17725;SDS011;8983;53.156;17.960;2022-10-31T09:25:25;101.07;;;30.87;;
17725;SDS011;8983;53.156;17.960;2022-10-31T09:27:55;63.33;;;27.30;;
17725;SDS011;8983;53.156;17.960;2022-10-31T09:30:25;64.67;;;25.07;;
17725;SDS011;8983;53.156;17.960;2022-10-31T09:32:55;68.13;;;29.33;;
17725;SDS011;8983;53.156;17.960;2022-10-31T09:35:23;63.67;;;26.70;;
17725;SDS011;8983;53.156;17.960;2022-10-31T09:37:55;62.20;;;24.60;;
17725;SDS011;8983;53.156;17.960;2022-10-31T09:40:24;62.03;;;25.23;;
17725;SDS011;8983;53.156;17.960;2022-10-31T09:43:01;81.73;;;26.47;;
17725;SDS011;8983;53.156;17.960;2022-10-31T09:45:39;67.67;;;27.63;;
17725;SDS011;8983;53.156;17.960;2022-10-31T09:48:18;116.23;;;31.00;;
17725;SDS011;8983;53.156;17.960;2022-10-31T09:50:55;98.43;;;30.87;;
17725;SDS011;8983;53.156;17.960;2022-10-31T09:53:26;64.70;;;27.60;;
17725;SDS011;8983;53.156;17.960;2022-10-31T09:56:01;73.60;;;30.17;;
17725;SDS011;8983;53.156;17.960;2022-10-31T09:58:32;89.57;;;30.20;;
17725;SDS011;8983;53.156;17.960;2022-10-31T10:01:09;84.87;;;29.57;;
17725;SDS011;8983;53.156;17.960;2022-10-31T10:03:58;63.50;;;27.97;;
17725;SDS011;8983;53.156;17.960;2022-10-31T10:06:32;76.90;;;30.67;;
17725;SDS011;8983;53.156;17.960;2022-10-31T10:09:02;75.27;;;30.90;;
17725;SDS011;8983;53.156;17.960;2022-10-31T10:11:37;73.53;;;30.20;;
17725;SDS011;8983;53.156;17.960;2022-10-31T10:14:18;75.57;;;30.30;;
17725;SDS011;8983;53.156;17.960;2022-10-31T10:17:00;65.90;;;25.63;;
17725;SDS011;8983;53.156;17.960;2022-10-31T10:19:57;68.83;;;24.83;;
17725;SDS011;8983;53.156;17.960;2022-10-31T10:22:39;52.53;;;23.83;;
17725;SDS011;8983;53.156;17.960;2022-10-31T10:25:19;74.63;;;25.93;;
17725;SDS011;8983;53.156;17.960;2022-10-31T10:27:51;63.50;;;23.73;;
17725;SDS011;8983;53.156;17.960;2022-10-31T10:30:31;58.77;;;23.13;;
17725;SDS011;8983;53.156;17.960;2022-10-31T10:33:08;66.50;;;24.67;;
17725;SDS011;8983;53.156;17.960;2022-10-31T10:35:39;53.53;;;23.67;;
17725;SDS011;8983;53.156;17.960;2022-10-31T10:38:13;60.83;;;24.77;;
17725;SDS011;8983;53.156;17.960;2022-10-31T10:40:45;56.57;;;24.93;;
17725;SDS011;8983;53.156;17.960;2022-10-31T10:43:22;61.53;;;25.67;;
17725;SDS011;8983;53.156;17.960;2022-10-31T10:46:00;77.33;;;23.53;;
17725;SDS011;8983;53.156;17.960;2022-10-31T10:49:09;58.37;;;22.77;;
17725;SDS011;8983;53.156;17.960;2022-10-31T10:51:44;78.53;;;22.67;;
17725;SDS011;8983;53.156;17.960;2022-10-31T10:54:48;64.23;;;23.93;;
17725;SDS011;8983;53.156;17.960;2022-10-31T10:57:32;71.43;;;23.93;;
17725;SDS011;8983;53.156;17.960;2022-10-31T11:00:15;69.13;;;23.50;;
17725;SDS011;8983;53.156;17.960;2022-10-31T11:02:46;51.67;;;22.07;;
17725;SDS011;8983;53.156;17.960;2022-10-31T11:05:18;55.73;;;23.93;;
17725;SDS011;8983;53.156;17.960;2022-10-31T11:07:52;67.23;;;23.90;;
17725;SDS011;8983;53.156;17.960;2022-10-31T11:10:20;82.07;;;24.00;;
17725;SDS011;8983;53.156;17.960;2022-10-31T11:12:58;81.33;;;24.43;;
17725;SDS011;8983;53.156;17.960;2022-10-31T11:15:30;59.70;;;24.10;;
17725;SDS011;8983;53.156;17.960;2022-10-31T11:18:02;69.93;;;23.17;;
17725;SDS011;8983;53.156;17.960;2022-10-31T11:20:33;48.03;;;22.50;;
17725;SDS011;8983;53.156;17.960;2022-10-31T11:23:15;79.30;;;24.10;;
17725;SDS011;8983;53.156;17.960;2022-10-31T11:25:49;55.77;;;25.30;;
17725;SDS011;8983;53.156;17.960;2022-10-31T11:28:19;65.07;;;25.00;;
17725;SDS011;8983;53.156;17.960;2022-10-31T11:30:49;61.60;;;26.77;;
17725;SDS011;8983;53.156;17.960;2022-10-31T11:33:20;57.03;;;24.23;;
17725;SDS011;8983;53.156;17.960;2022-10-31T11:35:53;56.17;;;22.97;;
17725;SDS011;8983;53.156;17.960;2022-10-31T11:38:24;55.23;;;23.37;;
17725;SDS011;8983;53.156;17.960;2022-10-31T11:40:59;48.00;;;22.83;;
17725;SDS011;8983;53.156;17.960;2022-10-31T11:43:31;59.07;;;22.40;;
17725;SDS011;8983;53.156;17.960;2022-10-31T11:45:59;52.77;;;23.53;;
17725;SDS011;8983;53.156;17.960;2022-10-31T11:48:36;65.97;;;23.67;;
17725;SDS011;8983;53.156;17.960;2022-10-31T11:51:06;60.83;;;23.60;;
17725;SDS011;8983;53.156;17.960;2022-10-31T11:53:34;69.43;;;25.10;;
17725;SDS011;8983;53.156;17.960;2022-10-31T11:56:04;57.90;;;24.17;;
17725;SDS011;8983;53.156;17.960;2022-10-31T11:58:37;59.47;;;24.63;;
17725;SDS011;8983;53.156;17.960;2022-10-31T12:01:05;52.90;;;23.20;;
17725;SDS011;8983;53.156;17.960;2022-10-31T12:03:51;51.77;;;23.53;;
17725;SDS011;8983;53.156;17.960;2022-10-31T12:06:30;56.07;;;23.60;;
17725;SDS011;8983;53.156;17.960;2022-10-31T12:09:01;60.47;;;24.30;;
17725;SDS011;8983;53.156;17.960;2022-10-31T12:11:35;58.87;;;22.43;;
17725;SDS011;8983;53.156;17.960;2022-10-31T12:14:16;62.57;;;24.07;;
17725;SDS011;8983;53.156;17.960;2022-10-31T12:16:56;62.20;;;24.27;;
17725;SDS011;8983;53.156;17.960;2022-10-31T12:19:34;57.87;;;23.70;;
17725;SDS011;8983;53.156;17.960;2022-10-31T12:22:11;65.87;;;23.30;;
17725;SDS011;8983;53.156;17.960;2022-10-31T12:24:56;69.57;;;25.13;;
17725;SDS011;8983;53.156;17.960;2022-10-31T12:27:48;59.07;;;24.87;;
17725;SDS011;8983;53.156;17.960;2022-10-31T12:30:46;64.10;;;26.87;;
17725;SDS011;8983;53.156;17.960;2022-10-31T12:33:26;70.70;;;25.13;;
17725;SDS011;8983;53.156;17.960;2022-10-31T12:36:12;58.90;;;23.40;;
17725;SDS011;8983;53.156;17.960;2022-10-31T12:39:01;62.80;;;25.80;;
17725;SDS011;8983;53.156;17.960;2022-10-31T12:41:44;67.57;;;26.00;;
17725;SDS011;8983;53.156;17.960;2022-10-31T12:44:22;74.23;;;26.07;;
17725;SDS011;8983;53.156;17.960;2022-10-31T12:47:07;50.73;;;24.60;;
17725;SDS011;8983;53.156;17.960;2022-10-31T12:49:53;50.93;;;24.20;;
17725;SDS011;8983;53.156;17.960;2022-10-31T12:52:40;51.13;;;24.67;;
17725;SDS011;8983;53.156;17.960;2022-10-31T12:55:25;61.20;;;26.30;;
17725;SDS011;8983;53.156;17.960;2022-10-31T12:58:04;56.43;;;24.97;;
17725;SDS011;8983;53.156;17.960;2022-10-31T13:00:38;59.93;;;24.03;;
17725;SDS011;8983;53.156;17.960;2022-10-31T13:03:19;55.13;;;26.23;;
17725;SDS011;8983;53.156;17.960;2022-10-31T13:05:53;64.80;;;25.00;;
17725;SDS011;8983;53.156;17.960;2022-10-31T13:08:26;48.83;;;25.53;;
17725;SDS011;8983;53.156;17.960;2022-10-31T13:11:02;59.27;;;26.53;;
17725;SDS011;8983;53.156;17.960;2022-10-31T13:13:35;74.37;;;27.00;;
17725;SDS011;8983;53.156;17.960;2022-10-31T13:16:09;80.90;;;27.87;;
17725;SDS011;8983;53.156;17.960;2022-10-31T13:18:43;62.47;;;26.77;;
17725;SDS011;8983;53.156;17.960;2022-10-31T13:21:16;62.87;;;27.77;;
17725;SDS011;8983;53.156;17.960;2022-10-31T13:23:49;62.73;;;25.63;;
17725;SDS011;8983;53.156;17.960;2022-10-31T13:26:24;62.90;;;27.80;;
17725;SDS011;8983;53.156;17.960;2022-10-31T13:29:03;69.30;;;26.83;;
17725;SDS011;8983;53.156;17.960;2022-10-31T13:31:39;60.50;;;26.37;;
17725;SDS011;8983;53.156;17.960;2022-10-31T13:34:10;64.27;;;26.63;;
17725;SDS011;8983;53.156;17.960;2022-10-31T13:36:48;75.67;;;24.03;;
17725;SDS011;8983;53.156;17.960;2022-10-31T13:39:29;80.87;;;27.50;;
17725;SDS011;8983;53.156;17.960;2022-10-31T13:42:08;89.23;;;26.47;;
17725;SDS011;8983;53.156;17.960;2022-10-31T13:44:40;69.27;;;25.83;;
17725;SDS011;8983;53.156;17.960;2022-10-31T13:47:20;55.20;;;23.63;;
17725;SDS011;8983;53.156;17.960;2022-10-31T13:49:50;49.17;;;25.13;;
17725;SDS011;8983;53.156;17.960;2022-10-31T13:52:22;50.77;;;22.03;;
17725;SDS011;8983;53.156;17.960;2022-10-31T13:54:52;47.63;;;22.40;;
17725;SDS011;8983;53.156;17.960;2022-10-31T13:57:27;53.37;;;21.60;;
17725;SDS011;8983;53.156;17.960;2022-10-31T14:00:04;47.50;;;23.83;;
17725;SDS011;8983;53.156;17.960;2022-10-31T14:02:49;53.60;;;24.37;;
17725;SDS011;8983;53.156;17.960;2022-10-31T14:05:21;52.47;;;22.57;;
17725;SDS011;8983;53.156;17.960;2022-10-31T14:07:52;56.27;;;24.93;;
17725;SDS011;8983;53.156;17.960;2022-10-31T14:10:23;65.63;;;23.13;;
17725;SDS011;8983;53.156;17.960;2022-10-31T14:13:02;59.40;;;23.10;;
17725;SDS011;8983;53.156;17.960;2022-10-31T14:15:33;51.20;;;21.67;;
17725;SDS011;8983;53.156;17.960;2022-10-31T14:18:03;44.37;;;20.57;;
17725;SDS011;8983;53.156;17.960;2022-10-31T14:20:37;73.47;;;33.33;;
17725;SDS011;8983;53.156;17.960;2022-10-31T14:23:10;80.37;;;29.27;;
17725;SDS011;8983;53.156;17.960;2022-10-31T14:26:05;88.60;;;25.73;;
17725;SDS011;8983;53.156;17.960;2022-10-31T14:28:50;93.00;;;27.13;;
17725;SDS011;8983;53.156;17.960;2022-10-31T14:31:30;89.07;;;27.63;;
17725;SDS011;8983;53.156;17.960;2022-10-31T14:34:05;115.47;;;29.87;;
17725;SDS011;8983;53.156;17.960;2022-10-31T14:36:49;92.10;;;29.30;;
17725;SDS011;8983;53.156;17.960;2022-10-31T14:39:25;102.50;;;29.33;;
17725;SDS011;8983;53.156;17.960;2022-10-31T14:42:03;107.13;;;28.37;;
17725;SDS011;8983;53.156;17.960;2022-10-31T14:44:50;104.00;;;28.97;;